sensor_id;sensor_type;location;lat;lon;timestamp;pressure;altitude;pressure_sealevel;temperature;humidity
48800;BME280;34611;47.964;7.982;2023-10-19T00:06:14;95187.50;;;15.58;55.64
48800;BME280;34611;47.964;7.982;2023-10-19T00:13:14;95174.38;;;15.58;55.62
48800;BME280;34611;47.964;7.982;2023-10-19T00:20:16;95177.84;;;15.58;55.67
48800;BME280;34611;47.964;7.982;2023-10-19T00:27:34;95176.03;;;15.59;55.74
48800;BME280;34611;47.964;7.982;2023-10-19T00:34:35;95184.88;;;15.58;55.64
48800;BME280;34611;47.964;7.982;2023-10-19T00:41:38;95185.69;;;15.58;55.89
48800;BME280;34611;47.964;7.982;2023-10-19T00:49:02;95173.59;;;15.57;55.64
48800;BME280;34611;47.964;7.982;2023-10-19T00:56:02;95179.63;;;15.58;55.65
48800;BME280;34611;47.964;7.982;2023-10-19T01:03:05;95174.38;;;15.58;55.71
48800;BME280;34611;47.964;7.982;2023-10-19T01:10:09;95159.50;;;15.58;55.71
48800;BME280;34611;47.964;7.982;2023-10-19T01:17:12;95150.03;;;15.57;55.72
48800;BME280;34611;47.964;7.982;2023-10-19T01:24:12;95156.06;;;15.58;55.63
48800;BME280;34611;47.964;7.982;2023-10-19T01:31:20;95154.28;;;15.58;55.73
48800;BME280;34611;47.964;7.982;2023-10-19T01:38:31;95143.78;;;15.58;55.69
48800;BME280;34611;47.964;7.982;2023-10-19T01:45:32;95136.13;;;15.57;55.73
48800;BME280;34611;47.964;7.982;2023-10-19T01:52:33;95117.59;;;15.58;55.72
48800;BME280;34611;47.964;7.982;2023-10-19T01:59:33;95122.84;;;15.58;55.80
48800;BME280;34611;47.964;7.982;2023-10-19T02:06:34;95117.59;;;15.58;55.74
48800;BME280;34611;47.964;7.982;2023-10-19T02:13:38;95114.16;;;15.58;55.72
48800;BME280;34611;47.964;7.982;2023-10-19T02:20:39;95112.38;;;15.58;55.90
48800;BME280;34611;47.964;7.982;2023-10-19T02:27:43;95110.72;;;15.57;55.83
48800;BME280;34611;47.964;7.982;2023-10-19T02:34:44;95119.63;;;15.56;55.76
48800;BME280;34611;47.964;7.982;2023-10-19T02:41:46;95110.72;;;15.57;55.80
48800;BME280;34611;47.964;7.982;2023-10-19T02:48:48;95107.13;;;15.58;55.77
48800;BME280;34611;47.964;7.982;2023-10-19T02:55:49;95095.03;;;15.57;55.75
48800;BME280;34611;47.964;7.982;2023-10-19T03:02:51;95090.59;;;15.58;55.87
48800;BME280;34611;47.964;7.982;2023-10-19T03:09:52;95071.44;;;15.57;55.88
48800;BME280;34611;47.964;7.982;2023-10-19T03:16:56;95072.25;;;15.58;55.82
48800;BME280;34611;47.964;7.982;2023-10-19T03:23:57;95071.25;;;15.59;55.86
48800;BME280;34611;47.964;7.982;2023-10-19T03:30:58;95070.47;;;15.58;55.90
48800;BME280;34611;47.964;7.982;2023-10-19T03:38:02;95058.34;;;15.57;55.90
48800;BME280;34611;47.964;7.982;2023-10-19T03:45:08;95047.88;;;15.57;55.85
48800;BME280;34611;47.964;7.982;2023-10-19T03:52:15;95038.19;;;15.58;55.88
48800;BME280;34611;47.964;7.982;2023-10-19T03:59:18;95033.78;;;15.58;55.88
48800;BME280;34611;47.964;7.982;2023-10-19T04:06:20;95023.31;;;15.58;55.90
48800;BME280;34611;47.964;7.982;2023-10-19T04:13:21;95018.06;;;15.58;55.91
48800;BME280;34611;47.964;7.982;2023-10-19T04:20:21;95012.84;;;15.58;55.84
48800;BME280;34611;47.964;7.982;2023-10-19T04:27:29;95008.41;;;15.59;55.83
48800;BME280;34611;47.964;7.982;2023-10-19T04:34:32;95007.59;;;15.58;55.97
48800;BME280;34611;47.964;7.982;2023-10-19T04:41:32;95011.03;;;15.59;55.95
48800;BME280;34611;47.964;7.982;2023-10-19T04:48:33;94996.31;;;15.58;55.96
48800;BME280;34611;47.964;7.982;2023-10-19T04:55:35;94987.25;;;15.61;55.91
48800;BME280;34611;47.964;7.982;2023-10-19T05:02:35;94979.59;;;15.59;55.99
48800;BME280;34611;47.964;7.982;2023-10-19T05:09:36;94974.34;;;15.59;55.93
48800;BME280;34611;47.964;7.982;2023-10-19T05:16:41;94966.50;;;15.59;56.02
48800;BME280;34611;47.964;7.982;2023-10-19T05:23:41;94956.03;;;15.59;55.91
48800;BME280;34611;47.964;7.982;2023-10-19T05:30:41;94948.97;;;15.59;56.07
48800;BME280;34611;47.964;7.982;2023-10-19T05:37:42;94945.53;;;15.59;56.05
48800;BME280;34611;47.964;7.982;2023-10-19T05:44:43;94938.69;;;15.58;55.93
48800;BME280;34611;47.964;7.982;2023-10-19T05:51:43;94948.16;;;15.59;55.96
48800;BME280;34611;47.964;7.982;2023-10-19T05:58:44;94943.91;;;15.58;56.06
48800;BME280;34611;47.964;7.982;2023-10-19T06:05:44;94950.78;;;15.59;56.06
48800;BME280;34611;47.964;7.982;2023-10-19T06:12:45;94935.88;;;15.59;56.08
48800;BME280;34611;47.964;7.982;2023-10-19T06:19:46;94945.53;;;15.59;56.09
48800;BME280;34611;47.964;7.982;2023-10-19T06:26:46;94953.41;;;15.59;56.02
48800;BME280;34611;47.964;7.982;2023-10-19T06:33:46;94944.75;;;15.58;56.08
48800;BME280;34611;47.964;7.982;2023-10-19T06:40:47;94941.09;;;15.59;56.06
48800;BME280;34611;47.964;7.982;2023-10-19T06:47:48;94922.97;;;15.58;55.99
48800;BME280;34611;47.964;7.982;2023-10-19T06:54:48;94922.78;;;15.59;56.00
48800;BME280;34611;47.964;7.982;2023-10-19T07:01:49;94917.72;;;15.58;56.08
48800;BME280;34611;47.964;7.982;2023-10-19T07:08:49;94929.81;;;15.59;56.23
48800;BME280;34611;47.964;7.982;2023-10-19T07:15:49;94934.28;;;15.58;55.97
48800;BME280;34611;47.964;7.982;2023-10-19T07:22:50;94941.31;;;15.58;56.05
48800;BME280;34611;47.964;7.982;2023-10-19T07:29:50;94935.06;;;15.59;55.97
48800;BME280;34611;47.964;7.982;2023-10-19T07:36:50;94940.31;;;15.59;56.02
48800;BME280;34611;47.964;7.982;2023-10-19T07:43:51;94929.03;;;15.58;56.15
48800;BME280;34611;47.964;7.982;2023-10-19T07:50:52;94933.25;;;15.59;56.10
48800;BME280;34611;47.964;7.982;2023-10-19T07:57:53;94924.59;;;15.59;56.10
48800;BME280;34611;47.964;7.982;2023-10-19T08:04:54;94918.31;;;15.60;56.11
48800;BME280;34611;47.964;7.982;2023-10-19T08:11:54;94925.38;;;15.59;56.05
48800;BME280;34611;47.964;7.982;2023-10-19T08:19:01;94930.63;;;15.59;56.17
48800;BME280;34611;47.964;7.982;2023-10-19T08:26:03;94914.13;;;15.59;56.13
48800;BME280;34611;47.964;7.982;2023-10-19T08:33:03;94922.78;;;15.59;56.19
48800;BME280;34611;47.964;7.982;2023-10-19T08:40:04;94920.94;;;15.60;56.25
48800;BME280;34611;47.964;7.982;2023-10-19T08:47:04;94914.13;;;15.59;56.16
48800;BME280;34611;47.964;7.982;2023-10-19T08:54:05;94915.72;;;15.60;56.34
48800;BME280;34611;47.964;7.982;2023-10-19T09:01:05;94918.31;;;15.60;56.12
48800;BME280;34611;47.964;7.982;2023-10-19T09:08:13;94910.47;;;15.60;56.26
48800;BME280;34611;47.964;7.982;2023-10-19T09:15:21;94915.72;;;15.60;56.24
48800;BME280;34611;47.964;7.982;2023-10-19T09:22:22;94922.56;;;15.61;56.34
48800;BME280;34611;47.964;7.982;2023-10-19T09:29:25;94909.69;;;15.59;56.27
48800;BME280;34611;47.964;7.982;2023-10-19T09:36:25;94902.63;;;15.60;56.21
48800;BME280;34611;47.964;7.982;2023-10-19T09:50:27;94881.66;;;15.60;56.38
48800;BME280;34611;47.964;7.982;2023-10-19T09:57:34;94857.28;;;15.59;56.24
48800;BME280;34611;47.964;7.982;2023-10-19T10:04:36;94850.22;;;15.60;56.29
48800;BME280;34611;47.964;7.982;2023-10-19T10:11:37;94852.06;;;15.59;56.39
48800;BME280;34611;47.964;7.982;2023-10-19T10:18:37;94850.22;;;15.60;56.25
48800;BME280;34611;47.964;7.982;2023-10-19T10:25:38;94859.72;;;15.61;56.34
48800;BME280;34611;47.964;7.982;2023-10-19T10:32:45;94831.91;;;15.60;56.33
48800;BME280;34611;47.964;7.982;2023-10-19T10:39:47;94810.94;;;15.60;56.43
48800;BME280;34611;47.964;7.982;2023-10-19T10:46:49;94818.81;;;15.60;56.29
48800;BME280;34611;47.964;7.982;2023-10-19T10:53:50;94800.47;;;15.60;56.42
48800;BME280;34611;47.964;7.982;2023-10-19T11:00:50;94792.63;;;15.60;56.34
48800;BME280;34611;47.964;7.982;2023-10-19T11:08:08;94785.59;;;15.61;56.35
48800;BME280;34611;47.964;7.982;2023-10-19T11:15:13;94790.00;;;15.60;56.40
48800;BME280;34611;47.964;7.982;2023-10-19T11:22:20;94790.81;;;15.61;56.42
48800;BME280;34611;47.964;7.982;2023-10-19T11:29:21;94795.22;;;15.60;56.48
48800;BME280;34611;47.964;7.982;2023-10-19T11:36:22;94794.44;;;15.59;56.39
48800;BME280;34611;47.964;7.982;2023-10-19T11:43:23;94807.34;;;15.61;56.42
48800;BME280;34611;47.964;7.982;2023-10-19T11:50:24;94809.94;;;15.61;56.34
48800;BME280;34611;47.964;7.982;2023-10-19T11:57:24;94823.84;;;15.62;56.39
48800;BME280;34611;47.964;7.982;2023-10-19T12:04:27;94818.59;;;15.62;56.41
48800;BME280;34611;47.964;7.982;2023-10-19T12:11:28;94820.44;;;15.61;56.54
48800;BME280;34611;47.964;7.982;2023-10-19T12:18:28;94814.41;;;15.61;56.42
48800;BME280;34611;47.964;7.982;2023-10-19T12:25:28;94804.72;;;15.61;56.44
48800;BME280;34611;47.964;7.982;2023-10-19T12:32:29;94796.84;;;15.61;56.45
48800;BME280;34611;47.964;7.982;2023-10-19T12:39:29;94775.91;;;15.61;56.44
48800;BME280;34611;47.964;7.982;2023-10-19T12:46:43;94758.56;;;15.60;56.48
48800;BME280;34611;47.964;7.982;2023-10-19T12:53:43;94747.09;;;15.61;56.57
48800;BME280;34611;47.964;7.982;2023-10-19T13:00:46;94734.00;;;15.61;56.62
48800;BME280;34611;47.964;7.982;2023-10-19T13:07:48;94732.38;;;15.60;56.54
48800;BME280;34611;47.964;7.982;2023-10-19T13:14:50;94734.78;;;15.62;56.60
48800;BME280;34611;47.964;7.982;2023-10-19T13:21:52;94706.19;;;15.60;56.62
48800;BME280;34611;47.964;7.982;2023-10-19T13:28:52;94707.00;;;15.61;56.59
48800;BME280;34611;47.964;7.982;2023-10-19T13:35:55;94697.34;;;15.61;56.48
48800;BME280;34611;47.964;7.982;2023-10-19T13:42:56;94692.09;;;15.61;56.59
48800;BME280;34611;47.964;7.982;2023-10-19T13:49:56;94665.91;;;15.61;56.45
48800;BME280;34611;47.964;7.982;2023-10-19T13:56:57;94652.81;;;15.61;56.57
48800;BME280;34611;47.964;7.982;2023-10-19T14:03:57;94639.72;;;15.61;56.63
48800;BME280;34611;47.964;7.982;2023-10-19T14:11:01;94603.06;;;15.61;56.54
48800;BME280;34611;47.964;7.982;2023-10-19T14:18:02;94596.00;;;15.62;56.47
48800;BME280;34611;47.964;7.982;2023-10-19T14:25:03;94601.22;;;15.62;56.54
48800;BME280;34611;47.964;7.982;2023-10-19T14:32:03;94585.53;;;15.62;56.80
48800;BME280;34611;47.964;7.982;2023-10-19T14:39:04;94568.22;;;15.61;56.51
48800;BME280;34611;47.964;7.982;2023-10-19T14:46:05;94546.44;;;15.60;56.50
48800;BME280;34611;47.964;7.982;2023-10-19T14:53:06;94534.16;;;15.61;56.60
48800;BME280;34611;47.964;7.982;2023-10-19T15:00:07;94537.59;;;15.61;56.57
48800;BME280;34611;47.964;7.982;2023-10-19T15:07:25;94535.75;;;15.62;56.60
48800;BME280;34611;47.964;7.982;2023-10-19T15:14:26;94530.53;;;15.62;56.48
48800;BME280;34611;47.964;7.982;2023-10-19T15:21:26;94517.00;;;15.65;56.56
48800;BME280;34611;47.964;7.982;2023-10-19T15:28:28;94527.69;;;15.63;56.77
48800;BME280;34611;47.964;7.982;2023-10-19T15:35:33;94506.94;;;15.62;56.86
48800;BME280;34611;47.964;7.982;2023-10-19T15:42:36;94507.75;;;15.62;56.63
48800;BME280;34611;47.964;7.982;2023-10-19T15:49:47;94491.25;;;15.62;56.85
48800;BME280;34611;47.964;7.982;2023-10-19T15:56:48;94488.63;;;15.62;56.76
48800;BME280;34611;47.964;7.982;2023-10-19T16:03:49;94483.38;;;15.62;56.71
48800;BME280;34611;47.964;7.982;2023-10-19T16:10:49;94493.84;;;15.62;56.66
48800;BME280;34611;47.964;7.982;2023-10-19T16:17:51;94484.41;;;15.61;56.54
48800;BME280;34611;47.964;7.982;2023-10-19T16:24:52;94499.88;;;15.62;56.73
48800;BME280;34611;47.964;7.982;2023-10-19T16:31:52;94488.63;;;15.62;56.71
48800;BME280;34611;47.964;7.982;2023-10-19T16:38:58;94490.25;;;15.63;56.73
48800;BME280;34611;47.964;7.982;2023-10-19T16:45:59;94500.72;;;15.63;56.73
48800;BME280;34611;47.964;7.982;2023-10-19T16:53:00;94502.50;;;15.62;56.66
48800;BME280;34611;47.964;7.982;2023-10-19T17:00:03;94489.41;;;15.62;56.86
48800;BME280;34611;47.964;7.982;2023-10-19T17:07:03;94465.06;;;15.62;56.71
48800;BME280;34611;47.964;7.982;2023-10-19T17:14:03;94472.91;;;15.62;56.85
48800;BME280;34611;47.964;7.982;2023-10-19T17:21:03;94458.81;;;15.63;56.80
48800;BME280;34611;47.964;7.982;2023-10-19T17:28:04;94445.72;;;15.63;56.84
48800;BME280;34611;47.964;7.982;2023-10-19T17:35:04;94443.88;;;15.63;56.73
48800;BME280;34611;47.964;7.982;2023-10-19T17:42:05;94458.00;;;15.62;56.77
48800;BME280;34611;47.964;7.982;2023-10-19T17:49:06;94465.84;;;15.62;56.87
48800;BME280;34611;47.964;7.982;2023-10-19T17:56:07;94458.00;;;15.62;56.92
48800;BME280;34611;47.964;7.982;2023-10-19T18:03:07;94444.91;;;15.62;56.85
48800;BME280;34611;47.964;7.982;2023-10-19T18:10:09;94437.88;;;15.63;56.78
48800;BME280;34611;47.964;7.982;2023-10-19T18:17:11;94456.97;;;15.63;56.99
48800;BME280;34611;47.964;7.982;2023-10-19T18:24:12;94448.53;;;15.61;56.88
48800;BME280;34611;47.964;7.982;2023-10-19T18:31:13;94443.88;;;15.63;56.85
48800;BME280;34611;47.964;7.982;2023-10-19T18:38:15;94414.28;;;15.63;56.75
48800;BME280;34611;47.964;7.982;2023-10-19T18:45:15;94431.81;;;15.62;56.95
48800;BME280;34611;47.964;7.982;2023-10-19T18:52:15;94384.66;;;15.62;56.94
48800;BME280;34611;47.964;7.982;2023-10-19T18:59:16;94343.59;;;15.63;56.93
48800;BME280;34611;47.964;7.982;2023-10-19T19:06:16;94346.19;;;15.63;56.83
48800;BME280;34611;47.964;7.982;2023-10-19T19:13:17;94317.41;;;15.63;56.97
48800;BME280;34611;47.964;7.982;2023-10-19T19:20:18;94293.81;;;15.63;56.85
48800;BME280;34611;47.964;7.982;2023-10-19T19:27:21;94298.03;;;15.64;56.86
48800;BME280;34611;47.964;7.982;2023-10-19T19:34:21;94319.78;;;15.64;56.93
48800;BME280;34611;47.964;7.982;2023-10-19T19:41:21;94279.91;;;15.62;56.85
48800;BME280;34611;47.964;7.982;2023-10-19T19:48:23;94279.91;;;15.62;56.92
48800;BME280;34611;47.964;7.982;2023-10-19T19:55:23;94281.53;;;15.63;56.91
48800;BME280;34611;47.964;7.982;2023-10-19T20:02:24;94293.81;;;15.63;56.93
48800;BME280;34611;47.964;7.982;2023-10-19T20:09:24;94301.44;;;15.64;57.00
48800;BME280;34611;47.964;7.982;2023-10-19T20:16:25;94290.38;;;15.62;56.98
48800;BME280;34611;47.964;7.982;2023-10-19T20:23:25;94251.09;;;15.62;57.11
48800;BME280;34611;47.964;7.982;2023-10-19T20:30:26;94221.28;;;15.63;57.00
48800;BME280;34611;47.964;7.982;2023-10-19T20:37:26;94235.97;;;15.64;57.09
48800;BME280;34611;47.964;7.982;2023-10-19T20:44:27;94220.25;;;15.64;57.07
48800;BME280;34611;47.964;7.982;2023-10-19T20:51:30;94212.41;;;15.64;56.95
48800;BME280;34611;47.964;7.982;2023-10-19T20:58:30;94226.53;;;15.63;57.00
48800;BME280;34611;47.964;7.982;2023-10-19T21:05:30;94205.59;;;15.63;57.05
48800;BME280;34611;47.964;7.982;2023-10-19T21:12:31;94186.22;;;15.64;57.04
48800;BME280;34611;47.964;7.982;2023-10-19T21:19:34;94163.69;;;15.63;56.96
48800;BME280;34611;47.964;7.982;2023-10-19T21:26:34;94159.25;;;15.64;57.01
48800;BME280;34611;47.964;7.982;2023-10-19T21:33:35;94151.38;;;15.64;56.99
48800;BME280;34611;47.964;7.982;2023-10-19T21:40:35;94142.72;;;15.63;57.03
48800;BME280;34611;47.964;7.982;2023-10-19T21:47:35;94115.75;;;15.63;57.01
48800;BME280;34611;47.964;7.982;2023-10-19T21:54:35;94117.34;;;15.64;57.09
48800;BME280;34611;47.964;7.982;2023-10-19T22:01:36;94106.88;;;15.64;57.22
48800;BME280;34611;47.964;7.982;2023-10-19T22:08:36;94081.47;;;15.64;56.99
48800;BME280;34611;47.964;7.982;2023-10-19T22:15:38;94084.09;;;15.64;57.13
48800;BME280;34611;47.964;7.982;2023-10-19T22:22:40;94099.00;;;15.64;57.08
48800;BME280;34611;47.964;7.982;2023-10-19T22:29:41;94095.59;;;15.63;57.11
48800;BME280;34611;47.964;7.982;2023-10-19T22:36:41;94093.78;;;15.64;57.06
48800;BME280;34611;47.964;7.982;2023-10-19T22:43:42;94081.47;;;15.64;57.16
48800;BME280;34611;47.964;7.982;2023-10-19T22:50:44;94085.13;;;15.63;57.12
48800;BME280;34611;47.964;7.982;2023-10-19T22:57:44;94084.09;;;15.64;57.16
48800;BME280;34611;47.964;7.982;2023-10-19T23:04:51;94078.84;;;15.64;57.21
48800;BME280;34611;47.964;7.982;2023-10-19T23:11:52;94041.41;;;15.64;57.17
48800;BME280;34611;47.964;7.982;2023-10-19T23:18:59;94013.38;;;15.64;57.13
48800;BME280;34611;47.964;7.982;2023-10-19T23:25:59;94000.28;;;15.64;57.13
48800;BME280;34611;47.964;7.982;2023-10-19T23:33:07;93967.28;;;15.63;57.11
48800;BME280;34611;47.964;7.982;2023-10-19T23:40:08;93940.06;;;15.64;57.23
48800;BME280;34611;47.964;7.982;2023-10-19T23:47:12;93914.91;;;15.63;57.11
48800;BME280;34611;47.964;7.982;2023-10-19T23:54:12;93927.78;;;15.65;57.23
